Time;durP1;ratioP1;P1;durP2;ratioP2;P2;SDS_P1;SDS_P2;PMS_P1;PMS_P2;Temp;Humidity;BMP_temperature;BMP_pressure;BME280_temperature;BME280_humidity;BME280_pressure;Samples;Min_cycle;Max_cycle;Signal;HPM_P1;HPM_P2
2021/09/19 00:01:18;;;;;;;1.95;1.05;;;15.90;99.90;;;;;;5093064;28;20115;-69
2021/09/19 00:03:43;;;;;;;2.50;0.90;;;15.90;99.90;;;;;;5091737;28;20047;-69
2021/09/19 00:06:09;;;;;;;2.63;1.13;;;15.90;99.90;;;;;;5091174;28;20054;-70
2021/09/19 00:08:35;;;;;;;3.47;1.58;;;15.90;99.90;;;;;;5092910;28;20385;-70
2021/09/19 00:11:01;;;;;;;1.95;1.33;;;15.80;99.90;;;;;;5091544;28;20103;-71
2021/09/19 00:13:26;;;;;;;5.10;1.00;;;15.80;99.90;;;;;;5092587;28;20104;-71
2021/09/19 00:15:53;;;;;;;3.30;0.98;;;15.80;99.90;;;;;;5092019;28;20097;-70
2021/09/19 00:18:19;;;;;;;2.30;0.90;;;15.80;99.90;;;;;;5092361;28;20040;-70
2021/09/19 00:20:45;;;;;;;4.20;1.55;;;15.80;99.90;;;;;;5092889;28;20019;-70
2021/09/19 00:23:11;;;;;;;3.08;1.02;;;15.70;99.90;;;;;;5091499;28;20035;-70
2021/09/19 00:25:37;;;;;;;2.22;1.10;;;15.80;99.90;;;;;;5092912;28;20063;-70
2021/09/19 00:28:04;;;;;;;1.38;1.10;;;15.80;99.90;;;;;;5090640;28;20032;-70
2021/09/19 00:30:30;;;;;;;2.90;1.25;;;15.80;99.90;;;;;;5092262;28;20074;-69
2021/09/19 00:32:58;;;;;;;2.22;1.17;;;15.80;99.90;;;;;;5090805;28;20081;-70
2021/09/19 00:35:25;;;;;;;1.88;1.23;;;15.80;99.90;;;;;;5092443;28;20022;-69
2021/09/19 00:37:50;;;;;;;2.10;1.00;;;15.80;99.90;;;;;;5091689;28;20051;-70
2021/09/19 00:40:16;;;;;;;2.13;1.05;;;15.70;99.90;;;;;;5091231;28;20398;-70
2021/09/19 00:42:42;;;;;;;2.30;0.80;;;15.70;99.90;;;;;;5092322;28;20104;-69
2021/09/19 00:45:15;;;;;;;1.10;0.85;;;15.60;99.90;;;;;;5091494;28;20012;-70
2021/09/19 00:47:41;;;;;;;2.72;1.23;;;15.60;99.90;;;;;;5092241;28;20031;-70
2021/09/19 00:50:09;;;;;;;2.63;1.00;;;15.60;99.90;;;;;;5090360;28;20465;-70
2021/09/19 00:52:37;;;;;;;3.97;1.58;;;15.50;99.90;;;;;;5092490;28;20464;-70
2021/09/19 00:55:03;;;;;;;1.17;0.90;;;15.60;99.90;;;;;;5090153;28;20042;-71
2021/09/19 00:57:30;;;;;;;3.42;1.02;;;15.50;99.90;;;;;;5090482;28;20051;-70
2021/09/19 00:59:56;;;;;;;3.85;1.00;;;15.50;99.90;;;;;;5091041;28;20028;-70
2021/09/19 01:02:22;;;;;;;1.13;1.00;;;15.50;99.90;;;;;;5092225;28;20046;-70
2021/09/19 01:04:48;;;;;;;1.90;0.90;;;15.50;99.90;;;;;;5091948;28;20373;-69
2021/09/19 01:07:15;;;;;;;2.30;1.00;;;15.50;99.90;;;;;;5090205;28;20051;-69
2021/09/19 01:09:42;;;;;;;1.23;1.10;;;15.40;99.90;;;;;;5091698;28;20016;-70
2021/09/19 01:12:11;;;;;;;2.20;1.35;;;15.50;99.90;;;;;;5090063;28;20065;-71
2021/09/19 01:14:39;;;;;;;4.72;0.95;;;15.40;99.90;;;;;;5091753;28;20016;-69
2021/09/19 01:17:06;;;;;;;4.95;1.40;;;15.40;99.90;;;;;;5089522;28;20402;-69
2021/09/19 01:19:34;;;;;;;2.33;1.20;;;15.40;99.90;;;;;;5091660;28;20024;-69
2021/09/19 01:22:00;;;;;;;3.58;1.08;;;15.40;99.90;;;;;;5090952;28;20038;-69
2021/09/19 01:24:27;;;;;;;2.08;1.30;;;15.30;99.90;;;;;;5091530;28;20380;-69
2021/09/19 01:26:53;;;;;;;1.38;0.90;;;15.40;99.90;;;;;;5089470;28;20444;-71
2021/09/19 01:29:19;;;;;;;2.13;1.10;;;15.40;99.90;;;;;;5091696;28;20114;-70
2021/09/19 01:31:45;;;;;;;3.88;1.15;;;15.30;99.90;;;;;;5092154;28;20372;-69
2021/09/19 01:34:11;;;;;;;2.67;1.10;;;15.30;99.90;;;;;;5090898;28;20032;-70
2021/09/19 01:36:37;;;;;;;5.88;1.17;;;15.30;99.90;;;;;;5091281;28;20051;-69
2021/09/19 01:39:06;;;;;;;4.35;1.30;;;15.30;99.90;;;;;;5090896;28;20475;-70
2021/09/19 01:41:32;;;;;;;1.48;1.33;;;15.30;99.90;;;;;;5089938;28;20016;-70
2021/09/19 01:43:58;;;;;;;1.15;0.70;;;15.30;99.90;;;;;;5089499;28;20061;-69
2021/09/19 01:46:24;;;;;;;2.45;1.27;;;15.20;99.90;;;;;;5090261;28;20027;-69
2021/09/19 01:48:49;;;;;;;2.33;1.20;;;15.20;99.90;;;;;;5091124;28;20122;-68
2021/09/19 01:51:15;;;;;;;2.88;0.88;;;15.20;99.90;;;;;;5091109;28;20036;-69
2021/09/19 01:53:41;;;;;;;2.08;1.00;;;15.10;99.90;;;;;;5091495;28;20036;-69
2021/09/19 01:56:08;;;;;;;1.23;0.68;;;15.20;99.90;;;;;;5089019;28;20020;-69
2021/09/19 01:58:45;;;;;;;1.85;1.10;;;15.10;99.90;;;;;;5089401;28;20024;-68
2021/09/19 02:01:11;;;;;;;1.13;0.90;;;15.10;99.90;;;;;;5089385;28;20019;-68
2021/09/19 02:03:38;;;;;;;1.60;1.15;;;15.10;99.90;;;;;;5091468;28;20114;-69
2021/09/19 02:06:06;;;;;;;2.28;1.15;;;15.10;99.90;;;;;;5090047;28;20452;-68
2021/09/19 02:08:35;;;;;;;1.67;1.10;;;15.20;99.90;;;;;;5090978;28;20111;-68
2021/09/19 02:11:11;;;;;;;2.17;1.20;;;15.20;99.90;;;;;;5090524;28;20043;-69
2021/09/19 02:13:39;;;;;;;2.05;0.70;;;15.00;99.90;;;;;;5090648;28;20024;-69
2021/09/19 02:16:06;;;;;;;7.65;1.25;;;15.00;99.90;;;;;;5090151;28;20024;-69
2021/09/19 02:18:33;;;;;;;1.40;0.70;;;15.00;99.90;;;;;;5091044;28;20523;-69
2021/09/19 02:20:59;;;;;;;1.15;0.80;;;15.10;99.90;;;;;;5089069;28;20046;-69
2021/09/19 02:23:25;;;;;;;1.52;1.25;;;15.10;99.90;;;;;;5090727;28;20047;-68
2021/09/19 02:25:51;;;;;;;1.45;0.95;;;15.10;99.90;;;;;;5090774;28;20028;-67
2021/09/19 02:28:18;;;;;;;1.25;0.70;;;15.10;99.90;;;;;;5090273;28;20031;-67
2021/09/19 02:30:43;;;;;;;2.75;0.65;;;15.10;99.90;;;;;;5091312;28;20073;-68
2021/09/19 02:33:09;;;;;;;1.58;0.98;;;15.00;99.90;;;;;;5090388;28;20020;-69
2021/09/19 02:35:35;;;;;;;4.03;1.33;;;15.00;99.90;;;;;;5090520;28;20031;-70
2021/09/19 02:38:00;;;;;;;2.55;0.98;;;15.00;99.90;;;;;;5090349;28;20020;-69
2021/09/19 02:40:26;;;;;;;3.15;1.23;;;15.00;99.90;;;;;;5089414;28;20130;-69
2021/09/19 02:42:53;;;;;;;3.97;0.80;;;14.80;99.90;;;;;;5089328;28;20024;-68
2021/09/19 02:45:20;;;;;;;1.23;1.13;;;14.80;99.90;;;;;;5088759;28;20433;-68
2021/09/19 02:47:46;;;;;;;2.00;0.88;;;14.90;99.90;;;;;;5090076;28;20111;-68
2021/09/19 02:50:15;;;;;;;1.40;1.17;;;14.80;99.90;;;;;;5090155;28;20087;-68
2021/09/19 02:52:40;;;;;;;1.42;1.08;;;14.90;99.90;;;;;;5089090;28;20024;-69
2021/09/19 02:55:07;;;;;;;1.73;1.23;;;14.90;99.90;;;;;;5089914;28;20035;-68
2021/09/19 02:57:33;;;;;;;1.80;1.40;;;14.80;99.90;;;;;;5090737;28;20036;-68
2021/09/19 02:59:58;;;;;;;1.98;1.30;;;14.70;99.90;;;;;;5088817;28;20042;-71
2021/09/19 03:02:24;;;;;;;2.75;1.25;;;14.80;99.90;;;;;;5089134;28;20024;-68
2021/09/19 03:04:50;;;;;;;0.90;0.80;;;14.80;99.90;;;;;;5088169;28;20024;-67
2021/09/19 03:07:15;;;;;;;1.52;1.33;;;14.80;99.90;;;;;;5090154;28;20032;-68
2021/09/19 03:09:41;;;;;;;2.45;0.95;;;14.80;99.90;;;;;;5093778;28;20341;-70
2021/09/19 03:12:07;;;;;;;1.65;1.10;;;14.80;99.90;;;;;;5093640;28;20353;-68
2021/09/19 03:14:32;;;;;;;2.60;1.00;;;14.70;99.90;;;;;;5094471;28;20433;-68
2021/09/19 03:16:58;;;;;;;5.78;1.00;;;14.70;99.90;;;;;;5093857;28;20411;-69
2021/09/19 03:19:24;;;;;;;1.63;1.35;;;14.80;99.90;;;;;;5091864;28;20063;-69
2021/09/19 03:21:50;;;;;;;1.00;0.90;;;14.70;99.90;;;;;;5093997;28;20032;-69
2021/09/19 03:24:15;;;;;;;4.18;1.05;;;14.70;99.90;;;;;;5091844;28;20055;-69
2021/09/19 03:26:41;;;;;;;3.30;1.75;;;14.70;99.90;;;;;;5094049;28;20028;-70
2021/09/19 03:29:07;;;;;;;3.38;0.98;;;14.70;99.90;;;;;;5091625;28;20385;-69
2021/09/19 03:31:32;;;;;;;1.35;1.23;;;14.70;99.90;;;;;;5093538;28;20024;-70
2021/09/19 03:33:58;;;;;;;1.65;0.85;;;14.60;99.90;;;;;;5093491;28;20146;-69
2021/09/19 03:36:24;;;;;;;4.93;1.45;;;14.60;99.90;;;;;;5092855;28;20028;-70
2021/09/19 03:38:49;;;;;;;2.10;1.02;;;14.60;99.90;;;;;;5093775;28;20016;-68
2021/09/19 03:41:15;;;;;;;2.08;1.20;;;14.60;99.90;;;;;;5093032;28;20034;-70
2021/09/19 03:43:41;;;;;;;3.25;1.50;;;14.60;99.90;;;;;;5093485;28;20496;-69
2021/09/19 03:46:07;;;;;;;2.60;1.25;;;14.50;99.90;;;;;;5092763;28;20073;-70
2021/09/19 03:48:32;;;;;;;2.83;1.33;;;14.50;99.90;;;;;;5093195;28;20025;-70
2021/09/19 03:50:59;;;;;;;2.30;1.58;;;14.50;99.90;;;;;;5093802;28;20049;-70
2021/09/19 03:53:25;;;;;;;1.20;1.00;;;14.50;99.90;;;;;;5092637;28;20330;-69
2021/09/19 03:55:50;;;;;;;3.75;1.42;;;14.50;99.90;;;;;;5093197;28;20027;-68
2021/09/19 03:58:16;;;;;;;3.15;1.40;;;14.50;99.90;;;;;;5091491;28;20345;-68
2021/09/19 04:00:42;;;;;;;1.92;1.40;;;14.40;99.90;;;;;;5093268;28;20092;-68
2021/09/19 04:03:08;;;;;;;3.63;1.30;;;14.40;99.90;;;;;;5092313;28;20038;-68
2021/09/19 04:05:36;;;;;;;3.75;1.65;;;14.40;99.90;;;;;;5092834;28;20020;-68
2021/09/19 04:08:03;;;;;;;4.13;1.48;;;14.50;99.90;;;;;;5093156;28;20032;-68
2021/09/19 04:10:28;;;;;;;2.63;1.35;;;14.40;99.90;;;;;;5093241;28;20453;-69
2021/09/19 04:12:54;;;;;;;2.20;1.40;;;14.40;99.90;;;;;;5093175;28;20028;-70
2021/09/19 04:15:19;;;;;;;2.35;1.92;;;14.40;99.90;;;;;;5091141;28;20027;-70
2021/09/19 04:17:45;;;;;;;2.67;1.63;;;14.40;99.90;;;;;;5092789;28;20021;-70
2021/09/19 04:20:11;;;;;;;3.10;1.33;;;14.40;99.90;;;;;;5091442;28;20457;-70
2021/09/19 04:22:37;;;;;;;2.03;1.30;;;14.50;99.90;;;;;;5091286;28;20051;-70
2021/09/19 04:25:04;;;;;;;1.77;1.30;;;14.40;99.90;;;;;;5092527;28;20086;-70
2021/09/19 04:27:29;;;;;;;1.55;1.40;;;14.40;99.90;;;;;;5093282;28;20028;-70
2021/09/19 04:29:55;;;;;;;3.35;1.60;;;14.30;99.90;;;;;;5092589;28;20027;-70
2021/09/19 04:32:21;;;;;;;3.97;1.55;;;14.30;99.90;;;;;;5090949;28;20350;-69
2021/09/19 04:34:46;;;;;;;1.70;1.60;;;14.30;99.90;;;;;;5092738;28;20100;-70
2021/09/19 04:37:13;;;;;;;1.65;1.55;;;14.30;99.90;;;;;;5090628;28;20024;-68
2021/09/19 04:39:41;;;;;;;2.40;1.88;;;14.30;99.90;;;;;;5092654;28;20053;-69
2021/09/19 04:42:07;;;;;;;3.10;1.40;;;14.40;99.90;;;;;;5090667;28;20103;-69
2021/09/19 04:44:33;;;;;;;1.92;1.42;;;14.30;99.90;;;;;;5092694;28;20100;-69
2021/09/19 04:46:59;;;;;;;2.80;1.48;;;14.30;99.90;;;;;;5092251;28;20423;-69
2021/09/19 04:49:24;;;;;;;3.70;1.77;;;14.40;99.90;;;;;;5090770;28;20384;-69
2021/09/19 04:51:50;;;;;;;2.33;1.65;;;14.40;99.90;;;;;;5092223;28;20031;-69
2021/09/19 04:54:15;;;;;;;3.17;1.25;;;14.30;99.90;;;;;;5090685;28;20062;-70
2021/09/19 04:56:41;;;;;;;3.30;1.55;;;14.30;99.90;;;;;;5092505;28;20059;-70
2021/09/19 04:59:07;;;;;;;5.53;1.58;;;14.20;99.90;;;;;;5090384;28;20315;-70
2021/09/19 05:01:33;;;;;;;4.07;1.60;;;14.20;99.90;;;;;;5090649;28;20024;-70
2021/09/19 05:03:58;;;;;;;4.47;1.90;;;14.20;99.90;;;;;;5092489;28;20024;-70
2021/09/19 05:06:24;;;;;;;2.85;1.85;;;14.20;99.90;;;;;;5091808;28;20047;-70
2021/09/19 05:08:50;;;;;;;6.95;2.30;;;14.20;99.90;;;;;;5092384;28;20078;-70
2021/09/19 05:11:15;;;;;;;2.05;1.85;;;14.30;99.90;;;;;;5090202;28;20020;-69
2021/09/19 05:13:41;;;;;;;1.90;1.80;;;14.30;99.90;;;;;;5090862;28;20055;-69
2021/09/19 05:16:07;;;;;;;3.63;1.83;;;14.20;99.90;;;;;;5090468;28;20048;-72
2021/09/19 05:18:32;;;;;;;3.45;1.73;;;14.30;99.90;;;;;;5092177;28;20032;-70
2021/09/19 05:21:00;;;;;;;5.95;2.33;;;14.30;99.90;;;;;;5092382;28;20027;-69
2021/09/19 05:23:26;;;;;;;3.65;2.65;;;14.20;99.90;;;;;;5089257;28;20097;-69
2021/09/19 05:25:52;;;;;;;2.92;2.17;;;14.30;99.90;;;;;;5090860;28;20070;-70
2021/09/19 05:28:17;;;;;;;2.78;2.30;;;14.30;99.90;;;;;;5091593;28;20074;-69
2021/09/19 05:30:43;;;;;;;2.13;1.92;;;14.40;99.90;;;;;;5090401;28;20031;-68
2021/09/19 05:33:09;;;;;;;3.33;2.17;;;14.40;99.90;;;;;;5090015;28;20456;-69
2021/09/19 05:35:35;;;;;;;2.65;1.92;;;14.40;99.90;;;;;;5091660;28;20020;-69
2021/09/19 05:38:07;;;;;;;2.50;1.75;;;14.40;99.90;;;;;;5091401;28;20035;-68
2021/09/19 05:40:34;;;;;;;4.65;2.10;;;14.40;99.90;;;;;;5091576;28;20430;-68
2021/09/19 05:43:02;;;;;;;2.63;1.80;;;14.40;99.90;;;;;;5090241;28;20027;-68
2021/09/19 05:45:28;;;;;;;6.88;3.78;;;14.40;99.90;;;;;;5091142;28;20035;-68
2021/09/19 05:47:55;;;;;;;5.32;2.15;;;14.50;99.90;;;;;;5091333;28;20465;-69
2021/09/19 05:50:20;;;;;;;4.97;2.60;;;14.50;99.90;;;;;;5090889;28;20023;-70
2021/09/19 05:52:46;;;;;;;3.15;1.42;;;14.50;99.90;;;;;;5091188;28;20389;-70
2021/09/19 05:55:11;;;;;;;1.80;1.70;;;14.60;99.90;;;;;;5089658;28;20089;-67
2021/09/19 05:57:37;;;;;;;2.55;2.10;;;14.60;99.90;;;;;;5090361;28;20027;-68
2021/09/19 06:00:05;;;;;;;2.60;2.10;;;14.60;99.90;;;;;;5091189;28;20466;-68
2021/09/19 06:02:30;;;;;;;4.90;1.83;;;14.80;99.90;;;;;;5091040;28;20341;-69
2021/09/19 06:04:56;;;;;;;3.92;2.22;;;14.90;99.90;;;;;;5090848;28;20031;-68
2021/09/19 06:07:22;;;;;;;2.55;1.95;;;14.90;99.90;;;;;;5091018;28;20134;-68
2021/09/19 06:09:47;;;;;;;3.45;2.88;;;15.00;99.90;;;;;;5090000;28;20445;-69
2021/09/19 06:12:14;;;;;;;2.40;2.13;;;15.00;99.90;;;;;;5089188;28;20055;-68
2021/09/19 06:14:39;;;;;;;3.47;2.47;;;15.10;99.90;;;;;;5090299;28;20022;-68
2021/09/19 06:17:05;;;;;;;4.03;2.17;;;15.00;99.90;;;;;;5090909;28;20052;-67
2021/09/19 06:19:31;;;;;;;4.18;2.10;;;15.00;99.90;;;;;;5090292;28;20036;-69
2021/09/19 06:21:59;;;;;;;3.75;2.15;;;15.10;99.90;;;;;;5091005;28;20024;-69
2021/09/19 06:24:26;;;;;;;2.90;2.17;;;15.30;99.90;;;;;;5088949;28;20464;-70
2021/09/19 06:26:51;;;;;;;7.68;1.90;;;15.50;99.90;;;;;;5089359;28;20039;-70
2021/09/19 06:29:17;;;;;;;5.05;2.70;;;15.40;99.90;;;;;;5089224;28;20020;-69
2021/09/19 06:31:43;;;;;;;1.92;1.73;;;15.50;99.90;;;;;;5090876;28;20031;-69
2021/09/19 06:34:08;;;;;;;4.40;2.10;;;15.70;99.90;;;;;;5090978;28;20095;-69
2021/09/19 06:36:34;;;;;;;3.47;1.95;;;15.80;99.90;;;;;;5088786;28;20024;-69
2021/09/19 06:39:00;;;;;;;2.10;1.52;;;16.00;99.90;;;;;;5091328;28;20075;-69
2021/09/19 06:41:25;;;;;;;1.88;1.75;;;16.30;99.90;;;;;;5089156;28;20089;-69
2021/09/19 06:43:51;;;;;;;2.17;1.40;;;16.40;99.90;;;;;;5092998;28;20372;-68
2021/09/19 06:46:17;;;;;;;1.92;1.73;;;16.60;99.90;;;;;;5093127;28;20125;-68
2021/09/19 06:48:42;;;;;;;3.10;2.00;;;16.90;99.90;;;;;;5094647;28;20020;-68
2021/09/19 06:51:08;;;;;;;3.20;1.95;;;16.70;99.90;;;;;;5095369;28;20024;-70
2021/09/19 06:53:37;;;;;;;2.70;1.85;;;16.60;99.90;;;;;;5092703;28;20028;-69
2021/09/19 06:56:04;;;;;;;3.10;1.90;;;16.60;99.90;;;;;;5094849;28;20059;-55
2021/09/19 06:58:30;;;;;;;1.80;1.40;;;17.10;99.90;;;;;;5093710;28;20028;-56
2021/09/19 07:00:56;;;;;;;5.13;1.60;;;17.90;99.90;;;;;;5093259;28;20028;-55
2021/09/19 07:03:22;;;;;;;3.45;1.48;;;18.30;99.90;;;;;;5093903;28;20032;-56
2021/09/19 07:05:48;;;;;;;2.15;1.88;;;18.70;99.90;;;;;;5092628;28;20053;-55
2021/09/19 07:08:14;;;;;;;2.72;1.60;;;18.50;99.90;;;;;;5093438;28;20028;-57
2021/09/19 07:10:39;;;;;;;3.72;1.85;;;18.60;99.90;;;;;;5094276;28;20023;-58
2021/09/19 07:13:05;;;;;;;2.13;1.92;;;18.30;99.90;;;;;;5094492;28;20027;-59
2021/09/19 07:15:31;;;;;;;1.83;1.67;;;17.90;99.90;;;;;;5086778;28;20028;-60
2021/09/19 07:17:56;;;;;;;9.82;2.08;;;18.10;99.90;;;;;;5073883;28;20119;-57
2021/09/19 07:20:22;;;;;;;2.90;1.58;;;18.40;99.90;;;;;;5085010;28;20111;-59
2021/09/19 07:22:48;;;;;;;1.70;1.60;;;18.30;99.90;;;;;;5092193;28;20028;-59
2021/09/19 07:25:15;;;;;;;5.78;1.98;;;18.00;99.90;;;;;;5091604;28;20044;-58
2021/09/19 07:27:41;;;;;;;6.63;2.10;;;18.20;99.90;;;;;;5086224;28;20050;-66
2021/09/19 07:30:08;;;;;;;27.73;20.80;;;18.60;99.90;;;;;;5091084;28;20023;-66
2021/09/19 07:32:34;;;;;;;6.00;4.78;;;18.40;99.90;;;;;;5089575;28;20032;-66
2021/09/19 07:35:01;;;;;;;4.38;3.00;;;18.30;99.90;;;;;;5091898;28;20131;-66
2021/09/19 07:37:27;;;;;;;2.88;2.40;;;18.70;99.90;;;;;;5090944;28;20024;-71
2021/09/19 07:39:53;;;;;;;4.05;2.08;;;18.90;99.90;;;;;;5088547;28;20555;-68
2021/09/19 07:42:19;;;;;;;5.22;2.17;;;19.30;99.90;;;;;;5088815;28;20036;-67
2021/09/19 07:44:45;;;;;;;34.60;23.02;;;19.70;99.90;;;;;;5092447;28;20020;-70
2021/09/19 07:47:11;;;;;;;110.40;87.63;;;19.40;99.90;;;;;;5092241;28;20039;-68
2021/09/19 07:49:39;;;;;;;52.90;44.45;;;19.40;99.90;;;;;;5091024;28;20032;-67
2021/09/19 07:52:06;;;;;;;11.82;6.22;;;19.80;99.90;;;;;;5091549;28;20030;-67
2021/09/19 07:54:32;;;;;;;8.05;3.55;;;20.30;99.90;;;;;;5091030;28;20140;-66
2021/09/19 07:56:58;;;;;;;2.40;2.20;;;20.60;99.90;;;;;;5092732;28;20082;-67
2021/09/19 07:59:24;;;;;;;6.65;2.45;;;20.50;99.40;;;;;;5090529;28;20055;-66
2021/09/19 08:01:50;;;;;;;4.97;2.20;;;20.80;99.80;;;;;;5092700;28;20381;-67
2021/09/19 08:04:15;;;;;;;3.22;2.05;;;20.80;99.60;;;;;;5100898;28;20080;-66
2021/09/19 08:06:41;;;;;;;4.10;2.28;;;21.10;98.70;;;;;;5092720;28;20044;-66
2021/09/19 08:09:06;;;;;;;3.45;2.03;;;21.30;98.20;;;;;;5092482;28;20070;-68
2021/09/19 08:11:32;;;;;;;2.65;1.77;;;20.70;97.70;;;;;;5092066;28;20024;-67
2021/09/19 08:14:05;;;;;;;1.90;1.77;;;21.00;98.60;;;;;;5092062;28;20020;-66
2021/09/19 08:16:36;;;;;;;2.60;2.22;;;21.30;97.40;;;;;;5090577;28;20039;-66
2021/09/19 08:19:03;;;;;;;2.47;2.28;;;21.80;98.20;;;;;;5092224;28;20093;-67
2021/09/19 08:21:29;;;;;;;1.85;1.67;;;22.10;97.60;;;;;;5091064;28;20038;-67
2021/09/19 08:23:54;;;;;;;3.70;2.25;;;22.20;96.90;;;;;;5088961;28;20135;-68
2021/09/19 08:26:20;;;;;;;5.05;2.00;;;21.60;96.90;;;;;;5090200;28;20039;-68
2021/09/19 08:28:46;;;;;;;6.03;2.33;;;21.80;96.70;;;;;;5091850;28;20070;-69
2021/09/19 08:31:11;;;;;;;10.85;7.53;;;21.60;96.90;;;;;;5091289;28;20080;-67
2021/09/19 08:33:37;;;;;;;58.97;45.30;;;22.10;96.60;;;;;;5091177;28;20124;-70
2021/09/19 08:36:03;;;;;;;8.95;7.47;;;22.30;95.80;;;;;;5090736;28;20485;-68
2021/09/19 08:38:28;;;;;;;4.00;2.88;;;21.80;96.40;;;;;;5089187;28;20120;-68
2021/09/19 08:40:54;;;;;;;2.67;2.10;;;22.20;96.00;;;;;;5090953;28;20032;-67
2021/09/19 08:43:20;;;;;;;3.25;2.28;;;22.70;95.20;;;;;;5091712;28;20252;-71
2021/09/19 08:45:48;;;;;;;2.08;1.80;;;22.90;94.80;;;;;;5091376;28;20024;-67
2021/09/19 08:48:21;;;;;;;2.70;2.38;;;23.10;94.50;;;;;;5069813;28;20067;-66
2021/09/19 08:50:50;;;;;;;5.07;2.40;;;22.60;94.40;;;;;;5071594;28;20028;-66
2021/09/19 08:53:16;;;;;;;3.63;2.70;;;22.50;95.50;;;;;;5071605;28;20474;-70
2021/09/19 08:55:43;;;;;;;5.53;2.20;;;22.70;94.40;;;;;;5070742;28;20150;-70
2021/09/19 08:58:09;;;;;;;4.28;2.60;;;23.20;95.10;;;;;;5086534;28;20035;-70
2021/09/19 09:00:44;;;;;;;2.63;1.80;;;23.10;94.60;;;;;;5070030;28;20115;-70
2021/09/19 09:03:12;;;;;;;4.88;2.30;;;23.50;95.10;;;;;;5070838;28;20088;-71
2021/09/19 09:05:38;;;;;;;1.88;1.70;;;23.80;95.00;;;;;;5070063;28;20028;-70
2021/09/19 09:08:06;;;;;;;4.82;1.92;;;24.30;94.40;;;;;;5070782;28;20028;-71
2021/09/19 09:10:33;;;;;;;2.97;2.17;;;24.50;93.40;;;;;;5068464;28;20378;-70
2021/09/19 09:13:06;;;;;;;3.85;2.25;;;24.60;93.40;;;;;;5085837;28;20115;-70
2021/09/19 09:15:36;;;;;;;4.75;1.92;;;23.70;92.70;;;;;;5082369;28;20134;-68
2021/09/19 09:18:04;;;;;;;2.40;2.00;;;23.70;93.70;;;;;;5089103;28;20036;-66
2021/09/19 09:20:52;;;;;;;2.03;1.80;;;23.50;92.70;;;;;;5087344;28;20027;-65
2021/09/19 09:23:27;;;;;;;3.60;2.03;;;23.20;94.10;;;;;;5070128;28;20053;-65
2021/09/19 09:26:12;;;;;;;1.95;1.75;;;23.20;94.50;;;;;;5072689;28;20028;-65
2021/09/19 09:28:46;;;;;;;3.33;2.10;;;23.10;94.10;;;;;;5080406;28;20036;-63
2021/09/19 09:31:36;;;;;;;2.30;2.10;;;23.10;93.50;;;;;;5090723;28;20114;-63
2021/09/19 09:34:08;;;;;;;6.35;1.90;;;22.60;94.10;;;;;;5079039;28;20048;-51
2021/09/19 09:36:35;;;;;;;7.88;2.10;;;23.20;94.20;;;;;;5091058;28;20115;-52
2021/09/19 09:39:19;;;;;;;2.55;1.90;;;23.20;92.90;;;;;;5086666;28;20032;-52
2021/09/19 09:41:45;;;;;;;5.30;1.80;;;23.70;92.20;;;;;;5071227;28;20033;-51
2021/09/19 09:44:53;;;;;;;3.95;1.60;;;23.80;93.00;;;;;;5109446;28;20024;-60
2021/09/19 09:47:24;;;;;;;6.43;1.80;;;24.60;92.10;;;;;;5047186;28;20071;-59
2021/09/19 09:49:53;;;;;;;1.92;1.45;;;24.60;92.40;;;;;;5099307;28;20350;-59
2021/09/19 09:52:34;;;;;;;1.50;1.40;;;23.40;91.90;;;;;;5109350;28;20054;-63
2021/09/19 09:55:08;;;;;;;2.10;1.60;;;23.00;92.20;;;;;;5110718;28;20036;-48
2021/09/19 09:57:37;;;;;;;3.55;1.45;;;23.00;93.50;;;;;;5109275;28;20036;-50
2021/09/19 10:00:11;;;;;;;2.10;1.83;;;23.30;92.80;;;;;;5110077;28;20384;-49
2021/09/19 10:02:42;;;;;;;4.05;1.90;;;23.20;92.50;;;;;;5109562;28;20083;-49
2021/09/19 10:05:09;;;;;;;2.83;1.90;;;23.50;91.90;;;;;;5109206;28;20024;-49
2021/09/19 10:07:38;;;;;;;2.70;2.28;;;23.90;92.60;;;;;;5088612;28;20036;-50
2021/09/19 10:10:07;;;;;;;2.20;2.00;;;24.00;91.10;;;;;;5069953;28;20530;-48
2021/09/19 10:12:33;;;;;;;4.40;1.65;;;24.10;91.70;;;;;;5069193;28;20036;-49
2021/09/19 10:14:59;;;;;;;5.05;2.00;;;23.60;91.20;;;;;;5069921;28;20115;-48
2021/09/19 10:17:27;;;;;;;8.85;2.15;;;23.90;91.90;;;;;;5091364;28;20028;-51
2021/09/19 10:19:54;;;;;;;2.75;1.65;;;24.00;92.10;;;;;;5095507;28;20032;-49
2021/09/19 10:22:58;;;;;;;2.50;1.55;;;23.80;92.10;;;;;;5092639;28;20110;-52
2021/09/19 10:25:29;;;;;;;3.53;1.75;;;23.40;92.60;;;;;;5090897;28;20410;-50
2021/09/19 10:28:23;;;;;;;2.58;1.55;;;23.30;92.80;;;;;;5092196;28;20395;-51
2021/09/19 10:31:08;;;;;;;3.38;2.10;;;23.20;92.40;;;;;;5092396;28;20028;-50
2021/09/19 10:33:49;;;;;;;2.75;1.98;;;23.50;93.40;;;;;;5090782;28;20446;-50
2021/09/19 10:36:31;;;;;;;2.42;1.50;;;24.00;92.00;;;;;;5091230;28;20028;-49
2021/09/19 10:39:15;;;;;;;3.80;1.77;;;24.70;93.30;;;;;;5092737;28;20090;-50
2021/09/19 10:42:18;;;;;;;2.05;1.85;;;24.90;91.00;;;;;;5092216;28;20028;-49
2021/09/19 10:44:49;;;;;;;2.10;1.70;;;25.50;89.90;;;;;;5090161;28;20033;-48
2021/09/19 10:47:39;;;;;;;2.33;1.65;;;25.40;90.10;;;;;;5102967;28;20126;-49
2021/09/19 10:50:22;;;;;;;3.05;1.90;;;25.30;90.20;;;;;;5112311;28;20027;-48
2021/09/19 10:52:54;;;;;;;1.58;1.48;;;24.80;90.20;;;;;;5092432;28;20032;-49
2021/09/19 10:55:25;;;;;;;2.33;1.95;;;24.30;91.40;;;;;;5092444;28;20039;-50
2021/09/19 10:58:24;;;;;;;1.58;1.48;;;23.90;91.40;;;;;;5091631;28;20513;-51
2021/09/19 11:01:19;;;;;;;1.70;1.60;;;23.20;92.20;;;;;;5090704;28;20039;-49
2021/09/19 11:04:00;;;;;;;2.78;2.05;;;23.60;92.20;;;;;;5071993;28;20036;-49
2021/09/19 11:06:34;;;;;;;1.55;1.45;;;24.30;91.80;;;;;;5089919;28;20163;-58
2021/09/19 11:09:23;;;;;;;3.28;1.60;;;24.90;90.10;;;;;;5078527;28;20496;-51
2021/09/19 11:12:14;;;;;;;4.97;1.92;;;25.30;90.10;;;;;;5079697;28;20334;-49
2021/09/19 11:15:00;;;;;;;5.25;2.05;;;24.60;90.00;;;;;;5091701;28;20077;-52
2021/09/19 11:17:28;;;;;;;2.72;2.38;;;24.70;90.30;;;;;;5102520;28;20472;-58
2021/09/19 11:20:12;;;;;;;4.38;2.15;;;24.80;90.50;;;;;;5112478;28;20035;-48
2021/09/19 11:22:43;;;;;;;3.58;2.30;;;24.60;89.80;;;;;;5111425;28;20031;-49
2021/09/19 11:25:11;;;;;;;2.63;1.80;;;24.20;90.80;;;;;;5112295;28;20503;-50
2021/09/19 11:27:39;;;;;;;2.15;1.95;;;24.30;90.80;;;;;;5110287;28;20031;-49
2021/09/19 11:30:06;;;;;;;2.28;2.08;;;24.10;91.50;;;;;;5109938;28;20043;-48
2021/09/19 11:32:32;;;;;;;1.83;1.73;;;24.10;90.80;;;;;;5103291;28;20043;-54
2021/09/19 11:35:00;;;;;;;2.33;1.90;;;23.90;90.80;;;;;;5087428;28;20081;-50
2021/09/19 11:37:27;;;;;;;1.95;1.77;;;23.50;91.50;;;;;;5078503;28;20025;-58
2021/09/19 11:39:52;;;;;;;1.92;1.83;;;23.40;92.10;;;;;;5077762;28;20130;-52
2021/09/19 11:42:18;;;;;;;2.50;2.28;;;23.70;92.00;;;;;;5088557;28;20261;-49
2021/09/19 11:44:49;;;;;;;3.92;2.72;;;23.70;91.60;;;;;;5086011;28;20027;-49
2021/09/19 11:47:18;;;;;;;2.33;2.03;;;23.70;92.00;;;;;;5091512;28;20071;-51
2021/09/19 11:49:45;;;;;;;2.25;2.03;;;23.40;91.70;;;;;;5089140;28;20420;-50
2021/09/19 11:52:11;;;;;;;3.92;2.17;;;23.20;91.90;;;;;;5090252;28;20470;-49
2021/09/19 11:54:40;;;;;;;6.13;2.22;;;22.90;92.10;;;;;;5088936;28;20035;-49
2021/09/19 11:57:06;;;;;;;2.53;1.92;;;22.90;93.00;;;;;;5091322;28;20196;-49
2021/09/19 11:59:32;;;;;;;1.70;1.60;;;23.00;92.00;;;;;;5088878;28;20119;-51
2021/09/19 12:01:58;;;;;;;3.20;1.90;;;22.90;91.70;;;;;;5089981;28;20487;-48
2021/09/19 12:04:25;;;;;;;2.25;2.05;;;22.60;92.30;;;;;;5089451;28;20028;-51
2021/09/19 12:06:51;;;;;;;3.35;2.10;;;22.40;92.80;;;;;;5088148;28;20529;-51
2021/09/19 12:09:21;;;;;;;2.05;1.90;;;22.50;93.10;;;;;;5087520;28;20074;-47
2021/09/19 12:11:50;;;;;;;2.17;1.98;;;22.70;92.60;;;;;;5088467;28;20024;-48
2021/09/19 12:14:21;;;;;;;2.45;2.05;;;22.60;93.10;;;;;;5088914;28;20034;-48
2021/09/19 12:17:05;;;;;;;3.15;2.85;;;22.70;93.00;;;;;;5089566;28;20044;-53
2021/09/19 12:19:33;;;;;;;3.67;1.77;;;22.90;92.70;;;;;;5085863;28;20028;-51
2021/09/19 12:22:00;;;;;;;2.90;2.00;;;23.00;92.20;;;;;;5088031;28;20469;-50
2021/09/19 12:24:30;;;;;;;2.10;1.90;;;23.00;92.90;;;;;;5086760;28;20067;-49
2021/09/19 12:27:18;;;;;;;2.03;1.92;;;23.10;93.40;;;;;;5090732;28;20035;-49
2021/09/19 12:30:04;;;;;;;2.15;2.00;;;22.90;93.30;;;;;;5086166;28;20048;-49
2021/09/19 12:32:36;;;;;;;3.88;2.50;;;22.90;93.00;;;;;;5086616;28;20353;-48
2021/09/19 12:35:09;;;;;;;1.92;1.80;;;22.90;92.80;;;;;;5087527;28;20024;-50
2021/09/19 12:37:36;;;;;;;1.60;1.50;;;23.00;93.00;;;;;;5086922;28;20027;-49
2021/09/19 12:40:34;;;;;;;1.85;1.55;;;22.90;93.20;;;;;;5086461;28;20040;-49
2021/09/19 12:43:09;;;;;;;1.73;1.60;;;23.00;93.20;;;;;;5043455;28;20028;-50
2021/09/19 12:45:35;;;;;;;2.30;1.73;;;23.00;93.40;;;;;;5089425;28;20055;-51
2021/09/19 12:48:05;;;;;;;2.30;2.03;;;23.00;93.40;;;;;;5089608;28;20073;-49
2021/09/19 12:50:30;;;;;;;2.58;1.85;;;22.90;92.90;;;;;;5087854;28;20024;-48
2021/09/19 12:52:58;;;;;;;2.28;1.55;;;22.80;93.50;;;;;;5088671;28;20027;-51